sensor_id;sensor_type;location;lat;lon;timestamp;P1;durP1;ratioP1;P2;durP2;ratioP2
74487;SDS011;63019;51.080;13.642;2023-02-14T00:01:09;20.40;;;10.82;;
74487;SDS011;63019;51.080;13.642;2023-02-14T00:02:12;22.73;;;9.98;;
74487;SDS011;63019;51.080;13.642;2023-02-14T00:03:13;19.90;;;9.25;;
74487;SDS011;63019;51.080;13.642;2023-02-14T00:04:16;25.05;;;11.10;;
74487;SDS011;63019;51.080;13.642;2023-02-14T00:05:19;23.45;;;10.48;;
74487;SDS011;63019;51.080;13.642;2023-02-14T00:06:21;20.83;;;9.82;;
74487;SDS011;63019;51.080;13.642;2023-02-14T00:07:22;24.00;;;10.10;;
74487;SDS011;63019;51.080;13.642;2023-02-14T00:08:24;21.27;;;9.67;;
74487;SDS011;63019;51.080;13.642;2023-02-14T00:09:26;24.25;;;10.45;;
74487;SDS011;63019;51.080;13.642;2023-02-14T00:10:28;21.08;;;10.43;;
74487;SDS011;63019;51.080;13.642;2023-02-14T00:11:30;23.98;;;10.70;;
74487;SDS011;63019;51.080;13.642;2023-02-14T00:12:32;21.42;;;10.27;;
74487;SDS011;63019;51.080;13.642;2023-02-14T00:13:34;24.35;;;10.63;;
74487;SDS011;63019;51.080;13.642;2023-02-14T00:14:35;20.77;;;10.10;;
74487;SDS011;63019;51.080;13.642;2023-02-14T00:15:56;23.92;;;11.00;;
74487;SDS011;63019;51.080;13.642;2023-02-14T00:16:58;21.70;;;9.90;;
74487;SDS011;63019;51.080;13.642;2023-02-14T00:18:01;20.33;;;10.43;;
74487;SDS011;63019;51.080;13.642;2023-02-14T00:19:03;20.23;;;9.95;;
74487;SDS011;63019;51.080;13.642;2023-02-14T00:20:05;21.73;;;10.50;;
74487;SDS011;63019;51.080;13.642;2023-02-14T00:21:07;22.17;;;10.05;;
74487;SDS011;63019;51.080;13.642;2023-02-14T00:22:09;22.27;;;10.15;;
74487;SDS011;63019;51.080;13.642;2023-02-14T00:23:11;22.58;;;9.50;;
74487;SDS011;63019;51.080;13.642;2023-02-14T00:24:23;21.77;;;10.00;;
74487;SDS011;63019;51.080;13.642;2023-02-14T00:25:25;21.45;;;9.63;;
74487;SDS011;63019;51.080;13.642;2023-02-14T00:26:27;20.63;;;10.10;;
74487;SDS011;63019;51.080;13.642;2023-02-14T00:27:29;24.63;;;10.70;;
74487;SDS011;63019;51.080;13.642;2023-02-14T00:28:31;21.27;;;10.07;;
74487;SDS011;63019;51.080;13.642;2023-02-14T00:29:33;21.08;;;10.52;;
74487;SDS011;63019;51.080;13.642;2023-02-14T00:30:34;22.85;;;11.13;;
74487;SDS011;63019;51.080;13.642;2023-02-14T00:31:36;24.30;;;11.13;;
74487;SDS011;63019;51.080;13.642;2023-02-14T00:32:39;24.35;;;10.95;;
74487;SDS011;63019;51.080;13.642;2023-02-14T00:33:42;27.13;;;10.77;;
74487;SDS011;63019;51.080;13.642;2023-02-14T00:34:44;21.25;;;10.40;;
74487;SDS011;63019;51.080;13.642;2023-02-14T00:35:46;22.35;;;9.70;;
74487;SDS011;63019;51.080;13.642;2023-02-14T00:36:47;24.52;;;10.38;;
74487;SDS011;63019;51.080;13.642;2023-02-14T00:37:49;21.38;;;9.70;;
74487;SDS011;63019;51.080;13.642;2023-02-14T00:38:51;21.10;;;9.67;;
74487;SDS011;63019;51.080;13.642;2023-02-14T00:39:53;22.48;;;10.13;;
74487;SDS011;63019;51.080;13.642;2023-02-14T00:40:55;20.42;;;10.18;;
74487;SDS011;63019;51.080;13.642;2023-02-14T00:41:57;24.02;;;10.63;;
74487;SDS011;63019;51.080;13.642;2023-02-14T00:42:59;19.95;;;10.05;;
74487;SDS011;63019;51.080;13.642;2023-02-14T00:44:00;19.98;;;9.55;;
74487;SDS011;63019;51.080;13.642;2023-02-14T00:45:02;19.23;;;9.77;;
74487;SDS011;63019;51.080;13.642;2023-02-14T00:46:04;18.55;;;8.82;;
74487;SDS011;63019;51.080;13.642;2023-02-14T00:47:06;18.73;;;9.18;;
74487;SDS011;63019;51.080;13.642;2023-02-14T00:48:08;19.02;;;9.20;;
74487;SDS011;63019;51.080;13.642;2023-02-14T00:49:10;17.07;;;8.73;;
74487;SDS011;63019;51.080;13.642;2023-02-14T00:50:12;17.73;;;8.50;;
74487;SDS011;63019;51.080;13.642;2023-02-14T00:51:14;19.60;;;8.60;;
74487;SDS011;63019;51.080;13.642;2023-02-14T00:52:16;18.00;;;8.68;;
74487;SDS011;63019;51.080;13.642;2023-02-14T00:53:17;20.02;;;9.13;;
74487;SDS011;63019;51.080;13.642;2023-02-14T00:54:19;17.35;;;9.15;;
74487;SDS011;63019;51.080;13.642;2023-02-14T00:55:21;23.05;;;10.52;;
74487;SDS011;63019;51.080;13.642;2023-02-14T00:56:23;23.67;;;10.68;;
74487;SDS011;63019;51.080;13.642;2023-02-14T00:57:24;23.65;;;11.25;;
74487;SDS011;63019;51.080;13.642;2023-02-14T00:58:26;23.05;;;10.50;;
74487;SDS011;63019;51.080;13.642;2023-02-14T00:59:28;23.83;;;10.93;;
74487;SDS011;63019;51.080;13.642;2023-02-14T01:00:30;23.65;;;10.52;;
74487;SDS011;63019;51.080;13.642;2023-02-14T01:01:32;26.40;;;10.90;;
74487;SDS011;63019;51.080;13.642;2023-02-14T01:02:34;22.67;;;10.90;;
74487;SDS011;63019;51.080;13.642;2023-02-14T01:03:36;26.92;;;11.48;;
74487;SDS011;63019;51.080;13.642;2023-02-14T01:04:38;23.73;;;10.80;;
74487;SDS011;63019;51.080;13.642;2023-02-14T01:05:40;22.27;;;10.23;;
74487;SDS011;63019;51.080;13.642;2023-02-14T01:06:42;22.25;;;10.82;;
74487;SDS011;63019;51.080;13.642;2023-02-14T01:07:44;22.52;;;10.90;;
74487;SDS011;63019;51.080;13.642;2023-02-14T01:08:46;22.80;;;10.65;;
74487;SDS011;63019;51.080;13.642;2023-02-14T01:09:48;24.33;;;10.13;;
74487;SDS011;63019;51.080;13.642;2023-02-14T01:10:50;23.05;;;10.23;;
74487;SDS011;63019;51.080;13.642;2023-02-14T01:11:51;19.75;;;9.73;;
74487;SDS011;63019;51.080;13.642;2023-02-14T01:12:53;22.92;;;10.65;;
74487;SDS011;63019;51.080;13.642;2023-02-14T01:13:56;19.35;;;9.95;;
74487;SDS011;63019;51.080;13.642;2023-02-14T01:14:58;22.55;;;10.40;;
74487;SDS011;63019;51.080;13.642;2023-02-14T01:16:03;19.23;;;8.85;;
74487;SDS011;63019;51.080;13.642;2023-02-14T01:17:07;18.45;;;9.32;;
74487;SDS011;63019;51.080;13.642;2023-02-14T01:18:09;21.80;;;9.32;;
74487;SDS011;63019;51.080;13.642;2023-02-14T01:19:11;21.23;;;9.70;;
74487;SDS011;63019;51.080;13.642;2023-02-14T01:20:13;18.57;;;8.80;;
74487;SDS011;63019;51.080;13.642;2023-02-14T01:21:22;18.42;;;8.93;;
74487;SDS011;63019;51.080;13.642;2023-02-14T01:22:24;19.70;;;9.27;;
74487;SDS011;63019;51.080;13.642;2023-02-14T01:23:26;24.25;;;10.52;;
74487;SDS011;63019;51.080;13.642;2023-02-14T01:24:27;22.17;;;10.25;;
74487;SDS011;63019;51.080;13.642;2023-02-14T01:25:29;21.17;;;9.43;;
74487;SDS011;63019;51.080;13.642;2023-02-14T01:26:32;19.77;;;9.80;;
74487;SDS011;63019;51.080;13.642;2023-02-14T01:27:34;19.50;;;10.05;;
74487;SDS011;63019;51.080;13.642;2023-02-14T01:28:36;26.25;;;11.52;;
74487;SDS011;63019;51.080;13.642;2023-02-14T01:29:39;22.83;;;10.60;;
74487;SDS011;63019;51.080;13.642;2023-02-14T01:30:41;24.27;;;10.73;;
74487;SDS011;63019;51.080;13.642;2023-02-14T01:31:43;22.70;;;10.23;;
74487;SDS011;63019;51.080;13.642;2023-02-14T01:32:46;25.40;;;11.02;;
74487;SDS011;63019;51.080;13.642;2023-02-14T01:33:48;25.90;;;11.38;;
74487;SDS011;63019;51.080;13.642;2023-02-14T01:34:50;23.30;;;10.60;;
74487;SDS011;63019;51.080;13.642;2023-02-14T01:37:26;22.08;;;10.43;;
74487;SDS011;63019;51.080;13.642;2023-02-14T01:38:30;23.23;;;10.43;;
74487;SDS011;63019;51.080;13.642;2023-02-14T01:39:32;23.60;;;10.80;;
74487;SDS011;63019;51.080;13.642;2023-02-14T01:40:33;23.27;;;11.40;;
74487;SDS011;63019;51.080;13.642;2023-02-14T01:41:42;22.63;;;11.20;;
74487;SDS011;63019;51.080;13.642;2023-02-14T01:42:45;24.87;;;10.87;;
74487;SDS011;63019;51.080;13.642;2023-02-14T01:45:07;24.00;;;11.18;;
74487;SDS011;63019;51.080;13.642;2023-02-14T01:46:23;23.95;;;11.35;;
74487;SDS011;63019;51.080;13.642;2023-02-14T01:47:26;23.27;;;10.30;;
74487;SDS011;63019;51.080;13.642;2023-02-14T01:48:31;23.17;;;10.25;;
74487;SDS011;63019;51.080;13.642;2023-02-14T01:50:06;22.52;;;10.70;;
74487;SDS011;63019;51.080;13.642;2023-02-14T01:51:04;21.17;;;10.45;;
74487;SDS011;63019;51.080;13.642;2023-02-14T01:52:16;24.88;;;10.68;;
74487;SDS011;63019;51.080;13.642;2023-02-14T01:53:24;23.93;;;11.10;;
74487;SDS011;63019;51.080;13.642;2023-02-14T01:54:28;22.77;;;10.88;;
74487;SDS011;63019;51.080;13.642;2023-02-14T01:55:35;22.52;;;10.50;;
74487;SDS011;63019;51.080;13.642;2023-02-14T01:56:40;23.45;;;10.93;;
74487;SDS011;63019;51.080;13.642;2023-02-14T01:57:55;25.15;;;11.15;;
74487;SDS011;63019;51.080;13.642;2023-02-14T01:59:05;22.52;;;10.48;;
74487;SDS011;63019;51.080;13.642;2023-02-14T02:00:09;21.50;;;10.00;;
74487;SDS011;63019;51.080;13.642;2023-02-14T02:01:29;22.77;;;10.68;;
74487;SDS011;63019;51.080;13.642;2023-02-14T02:02:31;23.13;;;10.52;;
74487;SDS011;63019;51.080;13.642;2023-02-14T02:03:41;24.83;;;10.60;;
74487;SDS011;63019;51.080;13.642;2023-02-14T02:04:48;20.97;;;8.77;;
74487;SDS011;63019;51.080;13.642;2023-02-14T02:05:54;21.60;;;9.70;;
74487;SDS011;63019;51.080;13.642;2023-02-14T02:07:10;21.27;;;10.50;;
74487;SDS011;63019;51.080;13.642;2023-02-14T02:08:15;21.40;;;10.45;;
74487;SDS011;63019;51.080;13.642;2023-02-14T02:09:22;25.33;;;10.68;;
74487;SDS011;63019;51.080;13.642;2023-02-14T02:10:31;21.98;;;10.60;;
74487;SDS011;63019;51.080;13.642;2023-02-14T02:11:33;22.67;;;9.90;;
74487;SDS011;63019;51.080;13.642;2023-02-14T02:12:35;21.38;;;9.77;;
74487;SDS011;63019;51.080;13.642;2023-02-14T02:13:38;21.50;;;10.40;;
74487;SDS011;63019;51.080;13.642;2023-02-14T02:14:40;20.05;;;9.57;;
74487;SDS011;63019;51.080;13.642;2023-02-14T02:15:51;21.13;;;10.30;;
74487;SDS011;63019;51.080;13.642;2023-02-14T02:18:34;23.23;;;9.93;;
74487;SDS011;63019;51.080;13.642;2023-02-14T02:22:03;23.02;;;9.65;;
74487;SDS011;63019;51.080;13.642;2023-02-14T02:22:57;16.70;;;8.68;;
74487;SDS011;63019;51.080;13.642;2023-02-14T02:27:16;17.15;;;8.40;;
74487;SDS011;63019;51.080;13.642;2023-02-14T02:34:12;18.88;;;8.52;;
74487;SDS011;63019;51.080;13.642;2023-02-14T02:47:02;14.85;;;7.93;;
74487;SDS011;63019;51.080;13.642;2023-02-14T02:48:15;13.65;;;7.97;;
74487;SDS011;63019;51.080;13.642;2023-02-14T02:49:27;16.15;;;8.50;;
74487;SDS011;63019;51.080;13.642;2023-02-14T02:50:52;16.70;;;8.30;;
74487;SDS011;63019;51.080;13.642;2023-02-14T02:53:58;12.32;;;7.20;;
74487;SDS011;63019;51.080;13.642;2023-02-14T02:55:07;14.50;;;7.55;;
74487;SDS011;63019;51.080;13.642;2023-02-14T02:56:53;8.82;;;5.13;;
74487;SDS011;63019;51.080;13.642;2023-02-14T02:57:59;9.50;;;4.80;;
74487;SDS011;63019;51.080;13.642;2023-02-14T02:59:03;11.37;;;4.40;;
74487;SDS011;63019;51.080;13.642;2023-02-14T03:00:18;8.65;;;5.18;;
74487;SDS011;63019;51.080;13.642;2023-02-14T03:01:23;7.22;;;4.30;;
74487;SDS011;63019;51.080;13.642;2023-02-14T03:02:31;9.18;;;4.50;;
74487;SDS011;63019;51.080;13.642;2023-02-14T03:04:06;10.98;;;5.53;;
74487;SDS011;63019;51.080;13.642;2023-02-14T03:05:30;10.65;;;5.68;;
74487;SDS011;63019;51.080;13.642;2023-02-14T03:06:34;11.27;;;6.78;;
74487;SDS011;63019;51.080;13.642;2023-02-14T03:07:37;12.68;;;7.03;;
74487;SDS011;63019;51.080;13.642;2023-02-14T03:08:39;11.73;;;7.22;;
74487;SDS011;63019;51.080;13.642;2023-02-14T03:10:43;13.02;;;7.10;;
74487;SDS011;63019;51.080;13.642;2023-02-14T03:11:48;14.82;;;7.50;;
74487;SDS011;63019;51.080;13.642;2023-02-14T03:14:55;16.00;;;7.80;;
74487;SDS011;63019;51.080;13.642;2023-02-14T03:19:52;13.15;;;7.40;;
74487;SDS011;63019;51.080;13.642;2023-02-14T03:21:36;14.00;;;7.78;;
74487;SDS011;63019;51.080;13.642;2023-02-14T03:25:27;14.48;;;7.13;;
74487;SDS011;63019;51.080;13.642;2023-02-14T03:27:58;13.18;;;6.88;;
74487;SDS011;63019;51.080;13.642;2023-02-14T03:32:59;11.60;;;6.25;;
74487;SDS011;63019;51.080;13.642;2023-02-14T03:34:08;8.13;;;4.60;;
74487;SDS011;63019;51.080;13.642;2023-02-14T03:36:51;8.93;;;4.80;;
74487;SDS011;63019;51.080;13.642;2023-02-14T03:38:25;8.90;;;4.53;;
74487;SDS011;63019;51.080;13.642;2023-02-14T03:41:00;8.40;;;4.93;;
74487;SDS011;63019;51.080;13.642;2023-02-14T03:42:10;9.18;;;4.68;;
74487;SDS011;63019;51.080;13.642;2023-02-14T03:43:22;9.15;;;4.60;;
74487;SDS011;63019;51.080;13.642;2023-02-14T03:44:29;8.95;;;5.10;;
74487;SDS011;63019;51.080;13.642;2023-02-14T03:45:53;8.63;;;5.10;;
74487;SDS011;63019;51.080;13.642;2023-02-14T03:47:04;8.80;;;5.03;;
74487;SDS011;63019;51.080;13.642;2023-02-14T03:48:13;9.20;;;5.18;;
74487;SDS011;63019;51.080;13.642;2023-02-14T03:49:17;10.93;;;4.80;;
74487;SDS011;63019;51.080;13.642;2023-02-14T03:50:23;10.43;;;5.18;;
74487;SDS011;63019;51.080;13.642;2023-02-14T03:51:27;9.45;;;5.40;;
74487;SDS011;63019;51.080;13.642;2023-02-14T03:52:34;13.68;;;6.70;;
74487;SDS011;63019;51.080;13.642;2023-02-14T03:53:39;12.00;;;6.10;;
74487;SDS011;63019;51.080;13.642;2023-02-14T03:54:45;12.05;;;6.43;;
74487;SDS011;63019;51.080;13.642;2023-02-14T03:55:52;12.40;;;7.00;;
74487;SDS011;63019;51.080;13.642;2023-02-14T03:57:22;13.25;;;7.00;;
74487;SDS011;63019;51.080;13.642;2023-02-14T03:58:29;12.00;;;7.03;;
74487;SDS011;63019;51.080;13.642;2023-02-14T03:59:34;11.93;;;6.80;;
74487;SDS011;63019;51.080;13.642;2023-02-14T04:00:37;12.27;;;6.43;;
74487;SDS011;63019;51.080;13.642;2023-02-14T04:01:46;11.15;;;6.93;;
74487;SDS011;63019;51.080;13.642;2023-02-14T04:02:53;12.52;;;7.10;;
74487;SDS011;63019;51.080;13.642;2023-02-14T04:03:59;13.38;;;6.93;;
74487;SDS011;63019;51.080;13.642;2023-02-14T04:05:04;13.85;;;7.25;;
74487;SDS011;63019;51.080;13.642;2023-02-14T04:06:12;12.18;;;6.75;;
74487;SDS011;63019;51.080;13.642;2023-02-14T04:07:17;11.07;;;6.38;;
74487;SDS011;63019;51.080;13.642;2023-02-14T04:08:21;13.68;;;6.53;;
74487;SDS011;63019;51.080;13.642;2023-02-14T04:09:25;15.80;;;6.97;;
74487;SDS011;63019;51.080;13.642;2023-02-14T04:10:26;13.38;;;6.55;;
74487;SDS011;63019;51.080;13.642;2023-02-14T04:11:28;10.90;;;6.43;;
74487;SDS011;63019;51.080;13.642;2023-02-14T04:12:35;12.63;;;7.10;;
74487;SDS011;63019;51.080;13.642;2023-02-14T04:13:38;14.05;;;7.28;;
74487;SDS011;63019;51.080;13.642;2023-02-14T04:14:40;12.07;;;7.20;;
74487;SDS011;63019;51.080;13.642;2023-02-14T04:15:42;9.40;;;5.82;;
74487;SDS011;63019;51.080;13.642;2023-02-14T04:16:44;8.15;;;4.80;;
74487;SDS011;63019;51.080;13.642;2023-02-14T04:18:05;10.18;;;5.65;;
74487;SDS011;63019;51.080;13.642;2023-02-14T04:19:25;9.05;;;5.30;;
74487;SDS011;63019;51.080;13.642;2023-02-14T04:20:27;11.00;;;5.32;;
74487;SDS011;63019;51.080;13.642;2023-02-14T04:21:30;10.20;;;5.40;;
74487;SDS011;63019;51.080;13.642;2023-02-14T04:22:32;8.00;;;4.60;;
74487;SDS011;63019;51.080;13.642;2023-02-14T04:23:33;9.40;;;5.33;;
74487;SDS011;63019;51.080;13.642;2023-02-14T04:24:35;9.70;;;5.30;;
74487;SDS011;63019;51.080;13.642;2023-02-14T04:25:37;9.30;;;5.05;;
74487;SDS011;63019;51.080;13.642;2023-02-14T04:26:40;8.05;;;4.57;;
74487;SDS011;63019;51.080;13.642;2023-02-14T04:27:54;9.48;;;4.28;;
74487;SDS011;63019;51.080;13.642;2023-02-14T04:28:55;7.50;;;3.97;;
74487;SDS011;63019;51.080;13.642;2023-02-14T04:29:57;7.80;;;4.45;;
74487;SDS011;63019;51.080;13.642;2023-02-14T04:31:02;8.13;;;4.40;;
74487;SDS011;63019;51.080;13.642;2023-02-14T04:32:06;7.82;;;3.95;;
74487;SDS011;63019;51.080;13.642;2023-02-14T04:33:10;8.53;;;4.10;;
74487;SDS011;63019;51.080;13.642;2023-02-14T04:34:12;8.27;;;4.50;;
74487;SDS011;63019;51.080;13.642;2023-02-14T04:35:14;9.55;;;5.47;;
74487;SDS011;63019;51.080;13.642;2023-02-14T04:36:16;10.10;;;5.40;;
74487;SDS011;63019;51.080;13.642;2023-02-14T04:37:18;10.70;;;4.90;;
74487;SDS011;63019;51.080;13.642;2023-02-14T04:38:20;7.75;;;4.28;;
74487;SDS011;63019;51.080;13.642;2023-02-14T04:39:22;9.07;;;4.72;;
74487;SDS011;63019;51.080;13.642;2023-02-14T04:40:24;6.68;;;4.20;;
74487;SDS011;63019;51.080;13.642;2023-02-14T04:41:26;7.97;;;4.78;;
74487;SDS011;63019;51.080;13.642;2023-02-14T04:42:27;10.55;;;5.10;;
74487;SDS011;63019;51.080;13.642;2023-02-14T04:43:29;8.70;;;5.17;;
74487;SDS011;63019;51.080;13.642;2023-02-14T04:44:31;9.90;;;5.60;;
74487;SDS011;63019;51.080;13.642;2023-02-14T04:45:38;8.25;;;4.53;;
74487;SDS011;63019;51.080;13.642;2023-02-14T04:46:39;8.95;;;4.40;;
74487;SDS011;63019;51.080;13.642;2023-02-14T04:47:41;9.20;;;4.65;;
74487;SDS011;63019;51.080;13.642;2023-02-14T04:48:43;9.30;;;4.72;;
74487;SDS011;63019;51.080;13.642;2023-02-14T04:49:45;8.82;;;5.10;;
74487;SDS011;63019;51.080;13.642;2023-02-14T04:50:53;9.88;;;4.93;;
74487;SDS011;63019;51.080;13.642;2023-02-14T04:51:55;11.63;;;5.00;;
74487;SDS011;63019;51.080;13.642;2023-02-14T04:52:57;9.32;;;4.72;;
74487;SDS011;63019;51.080;13.642;2023-02-14T04:53:59;8.80;;;4.73;;
74487;SDS011;63019;51.080;13.642;2023-02-14T04:55:01;8.68;;;5.28;;
74487;SDS011;63019;51.080;13.642;2023-02-14T04:56:07;8.65;;;4.90;;
74487;SDS011;63019;51.080;13.642;2023-02-14T04:57:09;9.25;;;5.13;;
74487;SDS011;63019;51.080;13.642;2023-02-14T04:58:11;9.82;;;5.10;;
74487;SDS011;63019;51.080;13.642;2023-02-14T04:59:13;10.10;;;5.70;;
74487;SDS011;63019;51.080;13.642;2023-02-14T05:00:15;8.90;;;5.07;;
74487;SDS011;63019;51.080;13.642;2023-02-14T05:01:17;10.35;;;5.63;;
74487;SDS011;63019;51.080;13.642;2023-02-14T05:02:19;8.95;;;5.45;;
74487;SDS011;63019;51.080;13.642;2023-02-14T05:03:21;11.00;;;5.53;;
74487;SDS011;63019;51.080;13.642;2023-02-14T05:04:23;12.93;;;5.43;;
74487;SDS011;63019;51.080;13.642;2023-02-14T05:05:25;10.27;;;5.18;;
74487;SDS011;63019;51.080;13.642;2023-02-14T05:06:27;10.48;;;5.45;;
74487;SDS011;63019;51.080;13.642;2023-02-14T05:07:29;9.02;;;5.03;;
74487;SDS011;63019;51.080;13.642;2023-02-14T05:08:30;11.35;;;5.72;;
74487;SDS011;63019;51.080;13.642;2023-02-14T05:09:32;11.73;;;5.38;;
74487;SDS011;63019;51.080;13.642;2023-02-14T05:10:34;11.13;;;5.68;;
74487;SDS011;63019;51.080;13.642;2023-02-14T05:11:36;10.05;;;5.30;;
74487;SDS011;63019;51.080;13.642;2023-02-14T05:12:37;8.02;;;4.78;;
74487;SDS011;63019;51.080;13.642;2023-02-14T05:13:39;10.55;;;5.70;;
74487;SDS011;63019;51.080;13.642;2023-02-14T05:14:41;9.50;;;4.90;;
74487;SDS011;63019;51.080;13.642;2023-02-14T05:15:43;11.38;;;5.75;;
74487;SDS011;63019;51.080;13.642;2023-02-14T05:16:46;10.05;;;6.18;;
74487;SDS011;63019;51.080;13.642;2023-02-14T05:17:47;9.88;;;5.57;;
74487;SDS011;63019;51.080;13.642;2023-02-14T05:18:49;9.98;;;5.78;;
74487;SDS011;63019;51.080;13.642;2023-02-14T05:19:51;10.27;;;5.93;;
74487;SDS011;63019;51.080;13.642;2023-02-14T05:20:53;10.82;;;5.75;;
74487;SDS011;63019;51.080;13.642;2023-02-14T05:21:55;13.25;;;5.97;;
74487;SDS011;63019;51.080;13.642;2023-02-14T05:22:57;15.07;;;5.95;;
74487;SDS011;63019;51.080;13.642;2023-02-14T05:24:03;11.15;;;5.60;;
74487;SDS011;63019;51.080;13.642;2023-02-14T05:25:05;10.50;;;6.20;;
74487;SDS011;63019;51.080;13.642;2023-02-14T05:26:08;10.50;;;5.73;;
74487;SDS011;63019;51.080;13.642;2023-02-14T05:27:10;11.55;;;6.18;;
74487;SDS011;63019;51.080;13.642;2023-02-14T05:28:12;11.18;;;6.38;;
74487;SDS011;63019;51.080;13.642;2023-02-14T05:29:13;11.75;;;6.20;;
74487;SDS011;63019;51.080;13.642;2023-02-14T05:30:15;14.75;;;6.60;;
74487;SDS011;63019;51.080;13.642;2023-02-14T05:31:17;14.40;;;6.85;;
74487;SDS011;63019;51.080;13.642;2023-02-14T05:32:19;14.75;;;6.95;;
74487;SDS011;63019;51.080;13.642;2023-02-14T05:33:21;12.27;;;6.75;;
74487;SDS011;63019;51.080;13.642;2023-02-14T05:34:23;12.13;;;7.10;;
74487;SDS011;63019;51.080;13.642;2023-02-14T05:35:25;12.50;;;6.87;;
74487;SDS011;63019;51.080;13.642;2023-02-14T05:36:27;15.20;;;7.38;;
74487;SDS011;63019;51.080;13.642;2023-02-14T05:37:29;13.93;;;6.93;;
74487;SDS011;63019;51.080;13.642;2023-02-14T05:38:31;12.93;;;7.13;;
74487;SDS011;63019;51.080;13.642;2023-02-14T05:39:34;14.25;;;7.32;;
74487;SDS011;63019;51.080;13.642;2023-02-14T05:40:36;15.73;;;7.38;;
74487;SDS011;63019;51.080;13.642;2023-02-14T05:41:39;14.27;;;7.13;;
74487;SDS011;63019;51.080;13.642;2023-02-14T05:42:42;11.90;;;6.60;;
74487;SDS011;63019;51.080;13.642;2023-02-14T05:43:44;13.00;;;7.13;;
74487;SDS011;63019;51.080;13.642;2023-02-14T05:44:45;13.65;;;7.63;;
74487;SDS011;63019;51.080;13.642;2023-02-14T05:45:48;12.30;;;6.23;;
74487;SDS011;63019;51.080;13.642;2023-02-14T05:46:50;13.97;;;7.00;;
74487;SDS011;63019;51.080;13.642;2023-02-14T05:47:52;14.63;;;7.28;;
74487;SDS011;63019;51.080;13.642;2023-02-14T05:48:54;14.18;;;6.80;;
74487;SDS011;63019;51.080;13.642;2023-02-14T05:49:56;13.60;;;6.03;;
74487;SDS011;63019;51.080;13.642;2023-02-14T05:51:01;14.40;;;6.18;;
74487;SDS011;63019;51.080;13.642;2023-02-14T05:52:04;12.32;;;6.05;;
74487;SDS011;63019;51.080;13.642;2023-02-14T05:53:07;12.95;;;6.22;;
74487;SDS011;63019;51.080;13.642;2023-02-14T05:54:09;15.43;;;6.78;;
74487;SDS011;63019;51.080;13.642;2023-02-14T05:55:11;12.43;;;5.88;;
74487;SDS011;63019;51.080;13.642;2023-02-14T05:56:13;17.30;;;6.60;;
74487;SDS011;63019;51.080;13.642;2023-02-14T05:57:15;13.60;;;7.00;;
74487;SDS011;63019;51.080;13.642;2023-02-14T05:58:17;13.15;;;6.47;;
74487;SDS011;63019;51.080;13.642;2023-02-14T05:59:18;14.13;;;6.75;;
74487;SDS011;63019;51.080;13.642;2023-02-14T06:00:21;15.95;;;7.35;;
74487;SDS011;63019;51.080;13.642;2023-02-14T06:01:24;16.08;;;7.10;;
74487;SDS011;63019;51.080;13.642;2023-02-14T06:02:26;16.60;;;6.95;;
74487;SDS011;63019;51.080;13.642;2023-02-14T06:03:27;13.68;;;6.80;;
74487;SDS011;63019;51.080;13.642;2023-02-14T06:04:29;15.88;;;7.10;;
74487;SDS011;63019;51.080;13.642;2023-02-14T06:05:31;15.48;;;6.35;;
74487;SDS011;63019;51.080;13.642;2023-02-14T06:06:33;12.77;;;6.40;;
74487;SDS011;63019;51.080;13.642;2023-02-14T06:07:36;13.48;;;6.40;;
74487;SDS011;63019;51.080;13.642;2023-02-14T06:08:38;15.65;;;6.40;;
74487;SDS011;63019;51.080;13.642;2023-02-14T06:09:40;14.45;;;6.60;;
74487;SDS011;63019;51.080;13.642;2023-02-14T06:10:42;12.38;;;6.65;;
74487;SDS011;63019;51.080;13.642;2023-02-14T06:11:44;14.50;;;6.88;;
74487;SDS011;63019;51.080;13.642;2023-02-14T06:12:46;14.10;;;7.18;;
74487;SDS011;63019;51.080;13.642;2023-02-14T06:13:49;15.00;;;7.25;;
74487;SDS011;63019;51.080;13.642;2023-02-14T06:14:51;13.15;;;6.28;;
74487;SDS011;63019;51.080;13.642;2023-02-14T06:15:53;13.95;;;6.88;;
74487;SDS011;63019;51.080;13.642;2023-02-14T06:16:55;14.37;;;6.87;;
74487;SDS011;63019;51.080;13.642;2023-02-14T06:17:57;13.95;;;7.10;;
74487;SDS011;63019;51.080;13.642;2023-02-14T06:18:58;15.18;;;7.10;;
74487;SDS011;63019;51.080;13.642;2023-02-14T06:20:00;13.27;;;6.85;;
74487;SDS011;63019;51.080;13.642;2023-02-14T06:21:02;14.68;;;6.90;;
74487;SDS011;63019;51.080;13.642;2023-02-14T06:22:04;14.23;;;7.15;;
74487;SDS011;63019;51.080;13.642;2023-02-14T06:23:05;16.52;;;7.30;;
74487;SDS011;63019;51.080;13.642;2023-02-14T06:24:07;15.70;;;7.15;;
74487;SDS011;63019;51.080;13.642;2023-02-14T06:25:09;15.60;;;7.75;;
74487;SDS011;63019;51.080;13.642;2023-02-14T06:26:11;16.08;;;7.13;;
74487;SDS011;63019;51.080;13.642;2023-02-14T06:27:13;16.50;;;7.57;;
74487;SDS011;63019;51.080;13.642;2023-02-14T06:28:14;14.63;;;7.43;;
74487;SDS011;63019;51.080;13.642;2023-02-14T06:29:16;18.60;;;8.32;;
74487;SDS011;63019;51.080;13.642;2023-02-14T06:30:18;20.55;;;8.68;;
74487;SDS011;63019;51.080;13.642;2023-02-14T06:31:20;16.75;;;8.43;;
74487;SDS011;63019;51.080;13.642;2023-02-14T06:32:22;16.63;;;7.95;;
74487;SDS011;63019;51.080;13.642;2023-02-14T06:33:24;18.92;;;8.18;;
74487;SDS011;63019;51.080;13.642;2023-02-14T06:34:26;17.15;;;8.75;;
74487;SDS011;63019;51.080;13.642;2023-02-14T06:35:27;18.73;;;8.93;;
74487;SDS011;63019;51.080;13.642;2023-02-14T06:36:29;17.58;;;8.43;;
74487;SDS011;63019;51.080;13.642;2023-02-14T06:37:31;17.77;;;8.63;;
74487;SDS011;63019;51.080;13.642;2023-02-14T06:38:33;16.50;;;8.43;;
74487;SDS011;63019;51.080;13.642;2023-02-14T06:39:34;18.88;;;7.90;;
74487;SDS011;63019;51.080;13.642;2023-02-14T06:40:36;13.00;;;7.32;;
74487;SDS011;63019;51.080;13.642;2023-02-14T06:41:38;20.70;;;7.72;;
74487;SDS011;63019;51.080;13.642;2023-02-14T06:42:41;16.20;;;7.38;;
74487;SDS011;63019;51.080;13.642;2023-02-14T06:43:43;16.40;;;7.82;;
74487;SDS011;63019;51.080;13.642;2023-02-14T06:44:46;14.75;;;6.80;;
74487;SDS011;63019;51.080;13.642;2023-02-14T06:45:47;15.35;;;6.50;;
74487;SDS011;63019;51.080;13.642;2023-02-14T06:46:49;14.15;;;6.72;;
74487;SDS011;63019;51.080;13.642;2023-02-14T06:47:51;14.37;;;6.60;;
74487;SDS011;63019;51.080;13.642;2023-02-14T06:48:53;14.73;;;7.32;;
74487;SDS011;63019;51.080;13.642;2023-02-14T06:49:55;12.40;;;6.45;;
74487;SDS011;63019;51.080;13.642;2023-02-14T06:50:57;14.43;;;6.88;;
74487;SDS011;63019;51.080;13.642;2023-02-14T06:51:59;14.77;;;7.45;;
74487;SDS011;63019;51.080;13.642;2023-02-14T06:53:01;14.20;;;7.38;;
74487;SDS011;63019;51.080;13.642;2023-02-14T06:54:03;13.75;;;6.88;;
74487;SDS011;63019;51.080;13.642;2023-02-14T06:55:04;14.13;;;7.05;;
74487;SDS011;63019;51.080;13.642;2023-02-14T06:56:07;15.27;;;7.40;;
74487;SDS011;63019;51.080;13.642;2023-02-14T06:57:08;16.38;;;8.07;;
74487;SDS011;63019;51.080;13.642;2023-02-14T06:58:10;15.50;;;8.17;;
74487;SDS011;63019;51.080;13.642;2023-02-14T06:59:12;14.63;;;7.55;;
74487;SDS011;63019;51.080;13.642;2023-02-14T07:00:14;14.73;;;6.82;;
74487;SDS011;63019;51.080;13.642;2023-02-14T07:01:16;16.85;;;7.80;;
74487;SDS011;63019;51.080;13.642;2023-02-14T07:02:18;15.73;;;7.53;;
74487;SDS011;63019;51.080;13.642;2023-02-14T07:03:20;15.48;;;7.70;;